sensor_id;sensor_type;location;lat;lon;timestamp;pressure;altitude;pressure_sealevel;temperature;humidity
10462;BME280;5278;42.656;23.374;2023-02-14T00:01:42;96038.81;;;4.46;73.64
10462;BME280;5278;42.656;23.374;2023-02-14T00:04:09;96040.16;;;4.51;73.57
10462;BME280;5278;42.656;23.374;2023-02-14T00:06:36;96041.00;;;4.52;73.47
10462;BME280;5278;42.656;23.374;2023-02-14T00:09:03;96037.59;;;4.51;74.19
10462;BME280;5278;42.656;23.374;2023-02-14T00:11:31;96039.13;;;4.54;73.68
10462;BME280;5278;42.656;23.374;2023-02-14T00:13:58;96033.88;;;4.55;73.58
10462;BME280;5278;42.656;23.374;2023-02-14T00:16:44;96045.31;;;4.51;74.08
10462;BME280;5278;42.656;23.374;2023-02-14T00:19:12;96046.94;;;4.40;74.65
10462;BME280;5278;42.656;23.374;2023-02-14T00:21:40;96041.41;;;4.46;73.73
10462;BME280;5278;42.656;23.374;2023-02-14T00:24:09;96043.66;;;4.38;74.27
10462;BME280;5278;42.656;23.374;2023-02-14T00:26:36;96047.06;;;4.38;74.31
10462;BME280;5278;42.656;23.374;2023-02-14T00:29:04;96028.22;;;4.38;74.32
10462;BME280;5278;42.656;23.374;2023-02-14T00:31:33;96037.16;;;4.45;74.07
10462;BME280;5278;42.656;23.374;2023-02-14T00:34:03;96042.22;;;4.46;74.37
10462;BME280;5278;42.656;23.374;2023-02-14T00:36:30;96027.91;;;4.42;74.00
10462;BME280;5278;42.656;23.374;2023-02-14T00:38:57;96036.97;;;4.48;74.79
10462;BME280;5278;42.656;23.374;2023-02-14T00:41:24;96029.88;;;4.51;74.33
10462;BME280;5278;42.656;23.374;2023-02-14T00:43:52;96030.47;;;4.55;74.47
10462;BME280;5278;42.656;23.374;2023-02-14T00:46:21;96027.50;;;4.61;74.46
10462;BME280;5278;42.656;23.374;2023-02-14T00:48:50;96030.91;;;4.61;74.31
10462;BME280;5278;42.656;23.374;2023-02-14T00:51:20;96008.69;;;4.48;74.45
10462;BME280;5278;42.656;23.374;2023-02-14T00:53:48;96030.69;;;4.64;74.55
10462;BME280;5278;42.656;23.374;2023-02-14T00:56:17;96015.88;;;4.68;73.82
10462;BME280;5278;42.656;23.374;2023-02-14T00:58:46;96014.00;;;4.70;73.65
10462;BME280;5278;42.656;23.374;2023-02-14T01:01:15;95959.69;;;4.37;73.90
10462;BME280;5278;42.656;23.374;2023-02-14T01:03:42;96012.16;;;4.72;73.54
10462;BME280;5278;42.656;23.374;2023-02-14T01:06:09;95997.44;;;4.74;73.38
10462;BME280;5278;42.656;23.374;2023-02-14T01:08:38;95973.59;;;4.47;73.36
10462;BME280;5278;42.656;23.374;2023-02-14T01:11:10;96014.00;;;4.70;73.32
10462;BME280;5278;42.656;23.374;2023-02-14T01:13:37;95978.13;;;4.43;73.72
10462;BME280;5278;42.656;23.374;2023-02-14T01:16:07;96011.84;;;4.64;73.47
10462;BME280;5278;42.656;23.374;2023-02-14T01:18:38;96001.25;;;4.56;74.18
10462;BME280;5278;42.656;23.374;2023-02-14T01:21:11;96003.09;;;4.54;73.86
10462;BME280;5278;42.656;23.374;2023-02-14T01:23:40;96003.09;;;4.54;73.83
10462;BME280;5278;42.656;23.374;2023-02-14T01:26:08;96005.69;;;4.54;73.89
10462;BME280;5278;42.656;23.374;2023-02-14T01:28:36;95957.44;;;4.32;74.35
10462;BME280;5278;42.656;23.374;2023-02-14T01:31:07;95966.50;;;4.38;73.94
10462;BME280;5278;42.656;23.374;2023-02-14T01:33:35;95986.03;;;4.53;74.30
10462;BME280;5278;42.656;23.374;2023-02-14T01:36:03;95988.41;;;4.56;73.63
10462;BME280;5278;42.656;23.374;2023-02-14T01:38:30;95987.66;;;4.54;74.07
10462;BME280;5278;42.656;23.374;2023-02-14T01:40:58;95973.38;;;4.50;74.26
10462;BME280;5278;42.656;23.374;2023-02-14T01:43:26;95970.09;;;4.48;74.38
10462;BME280;5278;42.656;23.374;2023-02-14T01:45:56;95966.78;;;4.46;74.45
10462;BME280;5278;42.656;23.374;2023-02-14T01:48:24;95966.78;;;4.46;74.72
10462;BME280;5278;42.656;23.374;2023-02-14T01:50:51;95960.81;;;4.45;74.23
10462;BME280;5278;42.656;23.374;2023-02-14T01:53:23;95957.41;;;4.45;73.72
10462;BME280;5278;42.656;23.374;2023-02-14T01:55:56;95962.78;;;4.42;74.34
10462;BME280;5278;42.656;23.374;2023-02-14T01:58:28;95929.66;;;4.24;74.11
10462;BME280;5278;42.656;23.374;2023-02-14T02:01:00;95955.56;;;4.47;73.82
10462;BME280;5278;42.656;23.374;2023-02-14T02:03:31;95967.72;;;4.45;73.71
10462;BME280;5278;42.656;23.374;2023-02-14T02:06:03;95966.38;;;4.39;74.11
10462;BME280;5278;42.656;23.374;2023-02-14T02:08:37;95957.94;;;4.37;74.17
10462;BME280;5278;42.656;23.374;2023-02-14T02:11:07;95951.06;;;4.38;74.32
10462;BME280;5278;42.656;23.374;2023-02-14T02:13:36;95959.59;;;4.38;74.05
10462;BME280;5278;42.656;23.374;2023-02-14T02:16:18;95962.97;;;4.39;74.39
10462;BME280;5278;42.656;23.374;2023-02-14T02:18:57;95961.63;;;4.46;73.73
10462;BME280;5278;42.656;23.374;2023-02-14T02:22:10;95951.88;;;4.38;73.95
10462;BME280;5278;42.656;23.374;2023-02-14T02:24:47;95960.13;;;4.43;73.73
10462;BME280;5278;42.656;23.374;2023-02-14T02:27:23;95940.31;;;4.44;74.13
10462;BME280;5278;42.656;23.374;2023-02-14T02:33:32;95929.75;;;4.36;74.10
10462;BME280;5278;42.656;23.374;2023-02-14T02:36:37;95927.91;;;4.38;74.02
10462;BME280;5278;42.656;23.374;2023-02-14T02:39:17;95923.38;;;4.41;74.14
10462;BME280;5278;42.656;23.374;2023-02-14T02:41:56;95913.81;;;4.43;74.03
10462;BME280;5278;42.656;23.374;2023-02-14T02:44:36;95922.03;;;4.48;73.50
10462;BME280;5278;42.656;23.374;2023-02-14T02:47:14;95913.25;;;4.51;73.51
10462;BME280;5278;42.656;23.374;2023-02-14T02:49:49;95912.34;;;4.52;73.18
10462;BME280;5278;42.656;23.374;2023-02-14T02:52:42;95901.75;;;4.44;73.39
10462;BME280;5278;42.656;23.374;2023-02-14T02:55:40;95917.50;;;4.52;73.02
10462;BME280;5278;42.656;23.374;2023-02-14T02:58:27;95904.13;;;4.34;73.55
10462;BME280;5278;42.656;23.374;2023-02-14T03:00:58;95927.38;;;4.45;73.00
10462;BME280;5278;42.656;23.374;2023-02-14T03:03:29;95926.84;;;4.40;73.06
10462;BME280;5278;42.656;23.374;2023-02-14T03:06:15;95911.00;;;4.33;73.11
10462;BME280;5278;42.656;23.374;2023-02-14T03:08:44;95922.44;;;4.42;73.23
10462;BME280;5278;42.656;23.374;2023-02-14T03:11:12;95924.91;;;4.44;73.09
10462;BME280;5278;42.656;23.374;2023-02-14T03:14:03;95890.78;;;4.16;73.21
10462;BME280;5278;42.656;23.374;2023-02-14T03:16:39;95808.22;;;3.70;73.32
10462;BME280;5278;42.656;23.374;2023-02-14T03:19:24;95926.34;;;4.35;73.75
10462;BME280;5278;42.656;23.374;2023-02-14T03:22:20;95914.91;;;4.39;73.57
10462;BME280;5278;42.656;23.374;2023-02-14T03:24:55;95909.91;;;4.38;74.02
10462;BME280;5278;42.656;23.374;2023-02-14T03:27:26;95913.41;;;4.37;73.85
10462;BME280;5278;42.656;23.374;2023-02-14T03:29:57;95902.06;;;4.39;74.11
10462;BME280;5278;42.656;23.374;2023-02-14T03:32:33;95899.91;;;4.46;73.41
10462;BME280;5278;42.656;23.374;2023-02-14T03:35:11;95886.22;;;4.45;73.61
10462;BME280;5278;42.656;23.374;2023-02-14T03:37:45;95898.97;;;4.47;73.48
10462;BME280;5278;42.656;23.374;2023-02-14T03:40:18;95881.69;;;4.36;73.00
10462;BME280;5278;42.656;23.374;2023-02-14T03:42:52;95890.56;;;4.32;73.22
10462;BME280;5278;42.656;23.374;2023-02-14T03:45:25;95897.66;;;4.41;73.20
10462;BME280;5278;42.656;23.374;2023-02-14T03:47:55;95893.59;;;4.50;72.58
10462;BME280;5278;42.656;23.374;2023-02-14T03:50:24;95894.75;;;4.46;72.97
10462;BME280;5278;42.656;23.374;2023-02-14T03:52:55;95891.25;;;4.47;72.50
10462;BME280;5278;42.656;23.374;2023-02-14T03:55:29;95879.03;;;4.38;72.92
10462;BME280;5278;42.656;23.374;2023-02-14T03:58:02;95884.56;;;4.44;72.45
10462;BME280;5278;42.656;23.374;2023-02-14T04:00:36;95831.72;;;4.15;72.86
10462;BME280;5278;42.656;23.374;2023-02-14T04:03:08;95863.47;;;4.39;72.86
10462;BME280;5278;42.656;23.374;2023-02-14T04:05:38;95861.34;;;4.33;72.75
10462;BME280;5278;42.656;23.374;2023-02-14T04:08:08;95863.09;;;4.32;72.63
10462;BME280;5278;42.656;23.374;2023-02-14T04:10:37;95874.63;;;4.27;73.05
10462;BME280;5278;42.656;23.374;2023-02-14T04:13:08;95859.38;;;4.24;73.11
10462;BME280;5278;42.656;23.374;2023-02-14T04:15:35;95852.13;;;4.18;73.18
10462;BME280;5278;42.656;23.374;2023-02-14T04:18:02;95871.22;;;4.14;73.43
10462;BME280;5278;42.656;23.374;2023-02-14T04:20:46;95872.50;;;4.08;73.68
10462;BME280;5278;42.656;23.374;2023-02-14T04:23:15;95876.50;;;4.12;73.59
10462;BME280;5278;42.656;23.374;2023-02-14T04:25:43;95847.00;;;3.93;74.04
10462;BME280;5278;42.656;23.374;2023-02-14T04:28:10;95865.69;;;4.07;73.63
10462;BME280;5278;42.656;23.374;2023-02-14T04:30:39;95749.34;;;3.29;74.55
10462;BME280;5278;42.656;23.374;2023-02-14T04:33:06;95864.66;;;3.97;74.22
10462;BME280;5278;42.656;23.374;2023-02-14T04:35:33;95858.41;;;4.01;73.86
10462;BME280;5278;42.656;23.374;2023-02-14T04:38:00;95865.28;;;4.01;73.86
10462;BME280;5278;42.656;23.374;2023-02-14T04:40:28;95854.06;;;3.89;74.56
10462;BME280;5278;42.656;23.374;2023-02-14T04:42:58;95851.31;;;3.92;74.13
10462;BME280;5278;42.656;23.374;2023-02-14T04:45:25;95850.25;;;3.95;74.57
10462;BME280;5278;42.656;23.374;2023-02-14T04:47:52;95840.59;;;3.85;74.23
10462;BME280;5278;42.656;23.374;2023-02-14T04:50:19;95846.16;;;3.92;74.92
10462;BME280;5278;42.656;23.374;2023-02-14T04:52:47;95844.53;;;3.91;73.82
10462;BME280;5278;42.656;23.374;2023-02-14T04:55:14;95837.91;;;4.00;73.66
10462;BME280;5278;42.656;23.374;2023-02-14T04:57:42;95830.03;;;4.03;73.88
10462;BME280;5278;42.656;23.374;2023-02-14T05:00:12;95725.34;;;3.30;73.91
10462;BME280;5278;42.656;23.374;2023-02-14T05:02:39;95846.97;;;4.05;73.53
10462;BME280;5278;42.656;23.374;2023-02-14T05:05:06;95859.72;;;4.07;73.13
10462;BME280;5278;42.656;23.374;2023-02-14T05:07:33;95849.22;;;4.10;72.91
10462;BME280;5278;42.656;23.374;2023-02-14T05:10:02;95859.81;;;4.05;72.79
10462;BME280;5278;42.656;23.374;2023-02-14T05:12:29;95850.38;;;4.06;72.81
10462;BME280;5278;42.656;23.374;2023-02-14T05:14:56;95846.16;;;4.05;73.48
10462;BME280;5278;42.656;23.374;2023-02-14T05:17:25;95841.41;;;4.11;73.21
10462;BME280;5278;42.656;23.374;2023-02-14T05:19:52;95842.34;;;4.10;73.62
10462;BME280;5278;42.656;23.374;2023-02-14T05:22:24;95830.94;;;4.02;73.10
10462;BME280;5278;42.656;23.374;2023-02-14T05:24:53;95837.59;;;4.04;73.56
10462;BME280;5278;42.656;23.374;2023-02-14T05:27:20;95831.53;;;4.05;73.54
10462;BME280;5278;42.656;23.374;2023-02-14T05:29:47;95831.63;;;4.16;73.00
10462;BME280;5278;42.656;23.374;2023-02-14T05:32:15;95836.19;;;4.13;72.81
10462;BME280;5278;42.656;23.374;2023-02-14T05:34:44;95841.50;;;4.22;72.49
10462;BME280;5278;42.656;23.374;2023-02-14T05:37:11;95836.88;;;4.15;72.53
10462;BME280;5278;42.656;23.374;2023-02-14T05:39:38;95834.00;;;4.19;72.76
10462;BME280;5278;42.656;23.374;2023-02-14T05:42:05;95831.22;;;4.22;72.00
10462;BME280;5278;42.656;23.374;2023-02-14T05:44:33;95829.03;;;4.29;72.10
10462;BME280;5278;42.656;23.374;2023-02-14T05:47:00;95847.16;;;4.27;71.71
10462;BME280;5278;42.656;23.374;2023-02-14T05:49:27;95835.22;;;4.26;72.03
10462;BME280;5278;42.656;23.374;2023-02-14T05:51:57;95785.88;;;4.09;71.78
10462;BME280;5278;42.656;23.374;2023-02-14T05:54:24;95839.72;;;4.48;71.55
10462;BME280;5278;42.656;23.374;2023-02-14T05:56:51;95832.03;;;4.59;70.45
10462;BME280;5278;42.656;23.374;2023-02-14T05:59:18;95830.41;;;4.82;69.75
10462;BME280;5278;42.656;23.374;2023-02-14T06:01:45;95832.34;;;4.91;69.28
10462;BME280;5278;42.656;23.374;2023-02-14T06:04:12;95829.00;;;5.02;68.78
10462;BME280;5278;42.656;23.374;2023-02-14T06:06:39;95821.84;;;5.05;68.49
10462;BME280;5278;42.656;23.374;2023-02-14T06:09:09;95838.69;;;5.33;67.58
10462;BME280;5278;42.656;23.374;2023-02-14T06:11:36;95837.38;;;5.74;65.83
10462;BME280;5278;42.656;23.374;2023-02-14T06:14:02;95840.84;;;6.19;63.45
10462;BME280;5278;42.656;23.374;2023-02-14T06:16:30;95810.25;;;6.47;61.00
10462;BME280;5278;42.656;23.374;2023-02-14T06:18:58;95844.00;;;6.99;59.29
10462;BME280;5278;42.656;23.374;2023-02-14T06:21:25;95832.31;;;7.26;58.25
10462;BME280;5278;42.656;23.374;2023-02-14T06:23:51;95827.91;;;7.59;56.21
10462;BME280;5278;42.656;23.374;2023-02-14T06:26:20;95839.13;;;8.20;55.15
10462;BME280;5278;42.656;23.374;2023-02-14T06:28:51;95831.16;;;8.73;52.22
10462;BME280;5278;42.656;23.374;2023-02-14T06:31:19;95824.06;;;8.75;52.40
10462;BME280;5278;42.656;23.374;2023-02-14T06:33:46;95825.84;;;8.74;51.67
10462;BME280;5278;42.656;23.374;2023-02-14T06:36:14;95829.72;;;8.49;51.94
10462;BME280;5278;42.656;23.374;2023-02-14T06:38:41;95828.50;;;8.23;52.93
10462;BME280;5278;42.656;23.374;2023-02-14T06:41:09;95829.03;;;8.17;53.26
10462;BME280;5278;42.656;23.374;2023-02-14T06:43:38;95821.38;;;8.06;53.79
10462;BME280;5278;42.656;23.374;2023-02-14T06:46:05;95838.94;;;7.82;54.76
10462;BME280;5278;42.656;23.374;2023-02-14T06:48:34;95824.88;;;7.74;55.03
10462;BME280;5278;42.656;23.374;2023-02-14T06:51:04;95853.13;;;7.66;55.25
10462;BME280;5278;42.656;23.374;2023-02-14T06:53:31;95785.47;;;7.61;55.42
10462;BME280;5278;42.656;23.374;2023-02-14T06:55:58;95826.81;;;7.82;55.03
10462;BME280;5278;42.656;23.374;2023-02-14T06:58:26;95825.63;;;7.65;56.24
10462;BME280;5278;42.656;23.374;2023-02-14T07:00:55;95821.78;;;7.60;56.45
10462;BME280;5278;42.656;23.374;2023-02-14T07:03:22;95819.91;;;7.62;56.30
10462;BME280;5278;42.656;23.374;2023-02-14T07:05:49;95820.69;;;7.62;56.55
10462;BME280;5278;42.656;23.374;2023-02-14T07:08:15;95814.47;;;7.44;57.35
10462;BME280;5278;42.656;23.374;2023-02-14T07:10:42;95802.34;;;7.24;58.31
10462;BME280;5278;42.656;23.374;2023-02-14T07:13:09;95800.84;;;7.21;58.97
10462;BME280;5278;42.656;23.374;2023-02-14T07:15:36;95812.72;;;7.13;59.48
10462;BME280;5278;42.656;23.374;2023-02-14T07:18:05;95811.22;;;7.10;59.67
10462;BME280;5278;42.656;23.374;2023-02-14T07:20:33;95824.34;;;6.86;60.94
10462;BME280;5278;42.656;23.374;2023-02-14T07:23:00;95772.69;;;6.43;62.99
10462;BME280;5278;42.656;23.374;2023-02-14T07:25:27;95791.56;;;6.44;63.80
10462;BME280;5278;42.656;23.374;2023-02-14T07:27:54;95816.44;;;6.45;64.65
10462;BME280;5278;42.656;23.374;2023-02-14T07:30:21;95823.50;;;6.32;66.35
10462;BME280;5278;42.656;23.374;2023-02-14T07:32:49;95788.47;;;5.96;67.24
10462;BME280;5278;42.656;23.374;2023-02-14T07:35:17;95819.53;;;6.05;67.98
10462;BME280;5278;42.656;23.374;2023-02-14T07:37:44;95786.66;;;5.85;69.24
10462;BME280;5278;42.656;23.374;2023-02-14T07:40:12;95834.25;;;7.34;100.00
10462;BME280;5278;42.656;23.374;2023-02-14T07:42:39;95812.63;;;8.87;100.00
10462;BME280;5278;42.656;23.374;2023-02-14T07:45:07;95810.63;;;10.04;81.39
10462;BME280;5278;42.656;23.374;2023-02-14T07:47:33;95826.50;;;10.93;63.64
10462;BME280;5278;42.656;23.374;2023-02-14T07:50:00;95815.44;;;11.61;56.75
10462;BME280;5278;42.656;23.374;2023-02-14T07:52:28;95827.69;;;11.87;52.59
10462;BME280;5278;42.656;23.374;2023-02-14T07:54:55;95817.53;;;12.01;53.22
10462;BME280;5278;42.656;23.374;2023-02-14T07:57:22;95819.72;;;12.40;50.96
10462;BME280;5278;42.656;23.374;2023-02-14T07:59:49;95823.47;;;12.79;48.75
10462;BME280;5278;42.656;23.374;2023-02-14T08:02:17;95829.84;;;12.93;47.19
10462;BME280;5278;42.656;23.374;2023-02-14T08:04:46;95830.34;;;12.97;47.62
10462;BME280;5278;42.656;23.374;2023-02-14T08:07:13;95827.66;;;13.22;46.98
10462;BME280;5278;42.656;23.374;2023-02-14T08:09:43;95829.34;;;13.56;68.01
10462;BME280;5278;42.656;23.374;2023-02-14T08:12:10;95825.88;;;13.96;63.96
10462;BME280;5278;42.656;23.374;2023-02-14T08:14:54;95824.44;;;13.93;58.54
10462;BME280;5278;42.656;23.374;2023-02-14T08:17:42;95817.44;;;13.53;45.56
10462;BME280;5278;42.656;23.374;2023-02-14T08:20:10;95838.06;;;11.79;46.71
10462;BME280;5278;42.656;23.374;2023-02-14T08:22:38;95842.88;;;10.48;50.59
10462;BME280;5278;42.656;23.374;2023-02-14T08:25:07;95837.25;;;9.40;54.55
10462;BME280;5278;42.656;23.374;2023-02-14T08:27:35;95856.47;;;8.59;58.39
10462;BME280;5278;42.656;23.374;2023-02-14T08:30:02;95871.53;;;7.94;61.92
10462;BME280;5278;42.656;23.374;2023-02-14T08:32:29;95869.38;;;7.57;63.74
10462;BME280;5278;42.656;23.374;2023-02-14T08:34:56;95854.94;;;7.34;65.21
10462;BME280;5278;42.656;23.374;2023-02-14T08:37:24;95850.44;;;7.15;66.82
10462;BME280;5278;42.656;23.374;2023-02-14T08:39:51;95851.09;;;6.97;67.72
10462;BME280;5278;42.656;23.374;2023-02-14T08:42:20;95852.69;;;6.66;69.24
10462;BME280;5278;42.656;23.374;2023-02-14T08:44:46;95866.66;;;6.41;70.96
10462;BME280;5278;42.656;23.374;2023-02-14T08:47:13;95871.34;;;6.25;72.59
10462;BME280;5278;42.656;23.374;2023-02-14T08:49:40;95867.00;;;6.03;73.60
10462;BME280;5278;42.656;23.374;2023-02-14T08:52:08;95862.50;;;5.83;75.29
10462;BME280;5278;42.656;23.374;2023-02-14T08:54:35;95854.38;;;5.65;75.49
10462;BME280;5278;42.656;23.374;2023-02-14T08:57:02;95861.78;;;5.81;75.98
10462;BME280;5278;42.656;23.374;2023-02-14T08:59:31;95877.59;;;5.76;76.61
10462;BME280;5278;42.656;23.374;2023-02-14T09:01:57;95843.44;;;5.50;77.33
10462;BME280;5278;42.656;23.374;2023-02-14T09:04:24;95859.91;;;5.72;77.19
10462;BME280;5278;42.656;23.374;2023-02-14T09:06:51;95831.94;;;5.43;77.66
10462;BME280;5278;42.656;23.374;2023-02-14T09:09:19;95865.59;;;5.64;78.25
10462;BME280;5278;42.656;23.374;2023-02-14T09:11:46;95861.03;;;5.56;78.27
10462;BME280;5278;42.656;23.374;2023-02-14T09:14:13;95864.91;;;5.62;78.48
10462;BME280;5278;42.656;23.374;2023-02-14T09:16:41;95853.09;;;5.71;78.29
10462;BME280;5278;42.656;23.374;2023-02-14T09:19:08;95845.38;;;5.82;78.00
10462;BME280;5278;42.656;23.374;2023-02-14T09:21:35;95851.53;;;5.92;77.57
10462;BME280;5278;42.656;23.374;2023-02-14T09:24:02;95849.53;;;5.95;77.01
10462;BME280;5278;42.656;23.374;2023-02-14T09:26:29;95850.91;;;5.88;76.54
10462;BME280;5278;42.656;23.374;2023-02-14T09:28:57;95841.63;;;5.86;76.54
10462;BME280;5278;42.656;23.374;2023-02-14T09:31:24;95841.41;;;5.89;76.46
10462;BME280;5278;42.656;23.374;2023-02-14T09:33:53;95855.09;;;5.78;76.84
10462;BME280;5278;42.656;23.374;2023-02-14T09:36:20;95850.16;;;5.75;77.30
10462;BME280;5278;42.656;23.374;2023-02-14T09:39:06;95847.09;;;5.70;77.03
10462;BME280;5278;42.656;23.374;2023-02-14T09:42:03;95846.19;;;5.71;76.71
10462;BME280;5278;42.656;23.374;2023-02-14T09:44:37;95845.69;;;5.66;77.15
10462;BME280;5278;42.656;23.374;2023-02-14T09:47:13;95799.16;;;5.45;76.92
10462;BME280;5278;42.656;23.374;2023-02-14T09:49:45;95838.91;;;5.65;76.74
10462;BME280;5278;42.656;23.374;2023-02-14T09:52:13;95843.69;;;5.58;76.90
10462;BME280;5278;42.656;23.374;2023-02-14T09:54:44;95837.84;;;5.56;77.14
10462;BME280;5278;42.656;23.374;2023-02-14T09:57:19;95821.63;;;5.43;77.56
10462;BME280;5278;42.656;23.374;2023-02-14T09:59:50;95831.28;;;5.52;77.33
10462;BME280;5278;42.656;23.374;2023-02-14T10:02:41;95821.75;;;5.53;77.78
10462;BME280;5278;42.656;23.374;2023-02-14T10:05:20;95807.66;;;5.35;77.52
10462;BME280;5278;42.656;23.374;2023-02-14T10:08:07;95806.69;;;5.25;77.75
10462;BME280;5278;42.656;23.374;2023-02-14T10:10:42;95835.81;;;5.38;78.36
10462;BME280;5278;42.656;23.374;2023-02-14T10:13:13;95826.66;;;5.45;77.88
10462;BME280;5278;42.656;23.374;2023-02-14T10:15:45;95821.00;;;5.29;78.03
10462;BME280;5278;42.656;23.374;2023-02-14T10:18:17;95817.16;;;5.34;78.13
10462;BME280;5278;42.656;23.374;2023-02-14T10:20:49;95793.28;;;5.08;77.62
10462;BME280;5278;42.656;23.374;2023-02-14T10:23:32;95814.13;;;5.40;77.16
10462;BME280;5278;42.656;23.374;2023-02-14T10:26:04;95802.16;;;5.39;77.31
10462;BME280;5278;42.656;23.374;2023-02-14T10:28:33;95823.97;;;5.46;77.40
10462;BME280;5278;42.656;23.374;2023-02-14T10:31:14;95818.03;;;5.57;77.08
10462;BME280;5278;42.656;23.374;2023-02-14T10:33:49;95763.91;;;5.46;76.11
10462;BME280;5278;42.656;23.374;2023-02-14T10:36:29;95811.25;;;5.67;75.45
10462;BME280;5278;42.656;23.374;2023-02-14T10:39:02;95795.78;;;5.67;75.93
10462;BME280;5278;42.656;23.374;2023-02-14T10:41:38;95790.63;;;5.67;75.13
10462;BME280;5278;42.656;23.374;2023-02-14T10:44:24;95809.25;;;5.59;75.12
10462;BME280;5278;42.656;23.374;2023-02-14T10:47:03;95809.44;;;5.45;76.02
10462;BME280;5278;42.656;23.374;2023-02-14T10:49:40;95799.50;;;5.41;76.54
10462;BME280;5278;42.656;23.374;2023-02-14T10:52:25;95815.41;;;5.35;76.54
10462;BME280;5278;42.656;23.374;2023-02-14T10:54:57;95815.84;;;5.29;76.76
10462;BME280;5278;42.656;23.374;2023-02-14T10:57:28;95800.38;;;5.29;76.53
10462;BME280;5278;42.656;23.374;2023-02-14T11:00:00;95784.00;;;5.30;76.69
10462;BME280;5278;42.656;23.374;2023-02-14T11:02:32;95796.78;;;5.31;76.82
10462;BME280;5278;42.656;23.374;2023-02-14T11:05:01;95781.88;;;5.24;77.10
10462;BME280;5278;42.656;23.374;2023-02-14T11:07:30;95802.50;;;5.35;77.10
10462;BME280;5278;42.656;23.374;2023-02-14T11:09:58;95788.47;;;5.28;76.57
10462;BME280;5278;42.656;23.374;2023-02-14T11:12:31;95805.47;;;5.41;76.45
10462;BME280;5278;42.656;23.374;2023-02-14T11:15:08;95790.59;;;5.45;75.66
10462;BME280;5278;42.656;23.374;2023-02-14T11:17:36;95800.78;;;5.46;75.06
10462;BME280;5278;42.656;23.374;2023-02-14T11:20:21;95803.72;;;5.42;75.42
10462;BME280;5278;42.656;23.374;2023-02-14T11:22:51;95792.78;;;5.38;75.30
10462;BME280;5278;42.656;23.374;2023-02-14T11:25:22;95803.72;;;5.42;75.43
10462;BME280;5278;42.656;23.374;2023-02-14T11:28:01;95789.41;;;5.38;75.21
10462;BME280;5278;42.656;23.374;2023-02-14T11:30:32;95788.47;;;5.28;75.86
10462;BME280;5278;42.656;23.374;2023-02-14T11:33:00;95791.25;;;5.25;75.47
10462;BME280;5278;42.656;23.374;2023-02-14T11:35:29;95786.59;;;5.41;75.47
10462;BME280;5278;42.656;23.374;2023-02-14T11:38:03;95777.69;;;5.34;75.04
10462;BME280;5278;42.656;23.374;2023-02-14T11:40:34;95777.09;;;5.30;74.78
10462;BME280;5278;42.656;23.374;2023-02-14T11:43:18;95770.22;;;5.42;74.26
10462;BME280;5278;42.656;23.374;2023-02-14T11:45:47;95647.03;;;4.67;73.72
10462;BME280;5278;42.656;23.374;2023-02-14T11:48:20;95756.75;;;5.49;73.32
10462;BME280;5278;42.656;23.374;2023-02-14T11:50:54;95757.47;;;5.62;71.51
10462;BME280;5278;42.656;23.374;2023-02-14T11:53:26;95768.25;;;5.56;71.10
10462;BME280;5278;42.656;23.374;2023-02-14T11:55:55;95763.44;;;5.63;70.29
10462;BME280;5278;42.656;23.374;2023-02-14T11:58:30;95754.56;;;5.67;70.05
10462;BME280;5278;42.656;23.374;2023-02-14T12:00:59;95745.16;;;5.66;69.85
10462;BME280;5278;42.656;23.374;2023-02-14T12:03:28;95712.00;;;5.50;69.88
10462;BME280;5278;42.656;23.374;2023-02-14T12:05:58;95692.69;;;5.56;68.88
10462;BME280;5278;42.656;23.374;2023-02-14T12:08:32;95741.69;;;5.89;68.44
10462;BME280;5278;42.656;23.374;2023-02-14T12:11:03;95723.97;;;5.96;67.78
10462;BME280;5278;42.656;23.374;2023-02-14T12:13:35;95723.41;;;5.92;68.04
10462;BME280;5278;42.656;23.374;2023-02-14T12:16:04;95725.72;;;6.07;68.04
10462;BME280;5278;42.656;23.374;2023-02-14T12:18:46;95745.19;;;6.11;67.52
10462;BME280;5278;42.656;23.374;2023-02-14T12:21:24;95729.09;;;6.18;67.55
10462;BME280;5278;42.656;23.374;2023-02-14T12:24:05;95730.47;;;6.33;66.82
10462;BME280;5278;42.656;23.374;2023-02-14T12:26:42;95693.66;;;6.31;66.41
10462;BME280;5278;42.656;23.374;2023-02-14T12:29:15;95720.56;;;6.49;66.23
10462;BME280;5278;42.656;23.374;2023-02-14T12:31:45;95723.22;;;6.70;65.84
10462;BME280;5278;42.656;23.374;2023-02-14T12:34:13;95712.38;;;6.76;65.13
10462;BME280;5278;42.656;23.374;2023-02-14T12:36:53;95727.31;;;6.93;64.74
10462;BME280;5278;42.656;23.374;2023-02-14T12:39:33;95709.25;;;6.93;63.83
10462;BME280;5278;42.656;23.374;2023-02-14T12:42:11;95706.66;;;7.35;63.15
10462;BME280;5278;42.656;23.374;2023-02-14T12:44:46;95716.16;;;7.55;61.52
10462;BME280;5278;42.656;23.374;2023-02-14T12:47:23;95719.34;;;7.68;61.00
10462;BME280;5278;42.656;23.374;2023-02-14T12:50:30;95705.75;;;7.76;61.04
10462;BME280;5278;42.656;23.374;2023-02-14T12:56:08;95717.53;;;7.90;59.59
10462;BME280;5278;42.656;23.374;2023-02-14T12:58:44;95713.34;;;8.08;59.73
10462;BME280;5278;42.656;23.374;2023-02-14T13:07:07;95716.13;;;7.76;59.86
10462;BME280;5278;42.656;23.374;2023-02-14T13:09:44;95707.97;;;7.50;61.10
10462;BME280;5278;42.656;23.374;2023-02-14T13:12:28;95701.09;;;7.40;61.71
10462;BME280;5278;42.656;23.374;2023-02-14T13:15:05;95694.63;;;7.24;62.37
10462;BME280;5278;42.656;23.374;2023-02-14T13:17:39;95703.75;;;7.28;62.94
10462;BME280;5278;42.656;23.374;2023-02-14T13:20:25;95695.72;;;7.22;63.79
10462;BME280;5278;42.656;23.374;2023-02-14T13:22:55;95696.00;;;7.08;64.35
10462;BME280;5278;42.656;23.374;2023-02-14T13:25:27;95679.25;;;6.81;64.81
10462;BME280;5278;42.656;23.374;2023-02-14T13:28:00;95716.75;;;6.97;65.20
10462;BME280;5278;42.656;23.374;2023-02-14T13:30:31;95667.19;;;6.50;65.91
10462;BME280;5278;42.656;23.374;2023-02-14T13:33:02;95690.97;;;6.85;66.64
10462;BME280;5278;42.656;23.374;2023-02-14T13:35:32;95699.53;;;6.65;67.35
10462;BME280;5278;42.656;23.374;2023-02-14T13:38:04;95696.50;;;6.60;67.88
10462;BME280;5278;42.656;23.374;2023-02-14T13:40:33;95717.34;;;6.68;67.57
10462;BME280;5278;42.656;23.374;2023-02-14T13:43:03;95580.38;;;5.96;68.05
10462;BME280;5278;42.656;23.374;2023-02-14T13:46:03;95701.69;;;6.49;68.29